createdAt,value
2019-02-22T00:00:35.048Z,8.50
2019-02-22T00:03:05.928Z,8.60
2019-02-22T00:05:38.042Z,8.50
2019-02-22T00:08:05.998Z,8.60
2019-02-22T00:10:37.249Z,8.50
2019-02-22T00:13:08.366Z,8.50
2019-02-22T00:15:39.343Z,8.50
2019-02-22T00:18:07.342Z,8.50
2019-02-22T00:20:35.272Z,8.50
2019-02-22T00:23:03.445Z,8.60
2019-02-22T00:25:34.356Z,8.60
2019-02-22T00:28:02.314Z,8.60
2019-02-22T00:30:30.314Z,8.60
2019-02-22T00:32:58.448Z,8.50
2019-02-22T00:35:32.508Z,8.50
2019-02-22T00:38:03.464Z,8.50
2019-02-22T00:40:31.350Z,8.50
2019-02-22T00:42:59.316Z,8.60
2019-02-22T00:45:39.276Z,8.60
2019-02-22T00:48:07.181Z,8.60
2019-02-22T00:50:35.331Z,8.70
2019-02-22T00:53:03.285Z,8.70
2019-02-22T00:55:31.277Z,8.70
2019-02-22T00:58:05.194Z,8.70
2019-02-22T01:00:33.168Z,8.70
2019-02-22T01:03:01.435Z,8.60
2019-02-22T01:05:29.412Z,8.60
2019-02-22T01:07:57.337Z,8.70
2019-02-22T01:10:31.094Z,8.70
2019-02-22T01:12:57.787Z,8.80
2019-02-22T01:15:25.658Z,8.90
2019-02-22T01:17:53.665Z,8.80
2019-02-22T01:20:24.337Z,8.80
2019-02-22T01:22:52.240Z,8.90
2019-02-22T01:25:23.185Z,9.00
2019-02-22T01:27:54.557Z,9.00
2019-02-22T01:30:22.789Z,9.00
2019-02-22T01:32:50.673Z,9.00
2019-02-22T01:35:18.807Z,9.00
2019-02-22T01:37:46.969Z,9.00
2019-02-22T01:40:14.875Z,9.00
2019-02-22T01:42:45.945Z,9.10
2019-02-22T01:45:16.912Z,9.10
2019-02-22T01:47:44.793Z,9.00
2019-02-22T01:50:19.125Z,9.00
2019-02-22T01:52:47.249Z,9.00
2019-02-22T01:55:15.202Z,9.00
2019-02-22T01:57:45.954Z,9.00
2019-02-22T02:00:14.168Z,9.00
2019-02-22T02:02:42.307Z,9.00
2019-02-22T02:05:13.049Z,9.00
2019-02-22T02:07:41.026Z,9.00
2019-02-22T02:10:11.845Z,9.00
2019-02-22T02:12:42.894Z,9.00
2019-02-22T02:15:11.103Z,9.00
2019-02-22T02:17:38.990Z,9.00
2019-02-22T02:20:13.552Z,9.00
2019-02-22T02:22:44.581Z,9.10
2019-02-22T02:25:12.563Z,9.10
2019-02-22T02:27:40.538Z,9.10
2019-02-22T02:30:09.166Z,9.10
2019-02-22T02:32:37.060Z,9.10
2019-02-22T02:35:05.277Z,9.10
2019-02-22T02:37:39.210Z,9.10
2019-02-22T02:40:07.365Z,9.10
2019-02-22T02:42:35.250Z,9.10
2019-02-22T02:45:03.258Z,9.10
2019-02-22T02:47:31.204Z,9.00
2019-02-22T02:49:59.407Z,9.00
2019-02-22T02:52:27.327Z,9.00
2019-02-22T02:54:55.449Z,9.00
2019-02-22T02:57:23.654Z,9.00
2019-02-22T02:59:54.586Z,9.00
2019-02-22T03:02:27.694Z,9.00
2019-02-22T03:04:58.855Z,8.90
2019-02-22T03:07:41.455Z,8.90
2019-02-22T03:10:12.199Z,8.90
2019-02-22T03:12:40.234Z,8.90
2019-02-22T03:15:12.173Z,8.90
2019-02-22T03:17:46.295Z,8.90
2019-02-22T03:20:17.382Z,8.90
2019-02-22T03:22:45.320Z,8.90
2019-02-22T03:25:19.355Z,8.90
2019-02-22T03:27:50.302Z,8.90
2019-02-22T03:30:18.194Z,8.90
2019-02-22T03:32:46.166Z,8.90
2019-02-22T03:35:14.127Z,8.90
2019-02-22T03:37:42.088Z,8.90
2019-02-22T03:40:10.056Z,8.90
2019-02-22T03:42:38.385Z,8.80
2019-02-22T03:45:06.368Z,8.80
2019-02-22T03:47:35.481Z,8.90
2019-02-22T03:50:06.735Z,8.80
2019-02-22T03:52:42.377Z,8.80
2019-02-22T03:55:10.421Z,8.80
2019-02-22T03:57:38.385Z,8.80
2019-02-22T04:00:06.913Z,8.70
2019-02-22T04:02:46.938Z,8.70
2019-02-22T04:05:14.918Z,8.70
2019-02-22T04:07:42.811Z,8.70
2019-02-22T04:10:10.861Z,8.70
2019-02-22T04:12:38.755Z,8.80
2019-02-22T04:15:06.716Z,8.90
2019-02-22T04:17:34.938Z,9.00
2019-02-22T04:20:05.912Z,9.00
2019-02-22T04:22:34.103Z,9.00
2019-02-22T04:25:02.031Z,9.10
2019-02-22T04:27:29.926Z,9.20
2019-02-22T04:30:00.652Z,9.20
2019-02-22T04:32:28.558Z,9.20
2019-02-22T04:34:59.470Z,9.20
2019-02-22T04:37:27.750Z,9.10
2019-02-22T04:39:55.636Z,9.10
2019-02-22T04:42:23.533Z,9.00
2019-02-22T04:44:54.521Z,9.10
2019-02-22T04:47:22.404Z,9.20
2019-02-22T04:49:50.412Z,9.20
2019-02-22T04:52:18.307Z,9.20
2019-02-22T04:54:46.282Z,9.10
2019-02-22T04:57:14.624Z,9.10
2019-02-22T04:59:42.518Z,9.10
2019-02-22T05:02:10.452Z,9.10
2019-02-22T05:04:38.379Z,9.10
2019-02-22T05:07:12.210Z,9.10
2019-02-22T05:09:40.362Z,9.10
2019-02-22T05:12:11.085Z,9.30
2019-02-22T05:14:37.886Z,9.20
2019-02-22T05:17:05.841Z,9.10
2019-02-22T05:19:34.057Z,9.10
2019-02-22T05:22:02.010Z,9.00
2019-02-22T05:24:35.149Z,9.10
2019-02-22T05:27:03.042Z,9.10
2019-02-22T05:29:33.842Z,9.10
2019-02-22T05:32:01.747Z,9.00
2019-02-22T05:34:29.873Z,9.00
2019-02-22T05:36:57.784Z,9.00
2019-02-22T05:39:25.797Z,9.00
2019-02-22T05:41:53.944Z,9.00
2019-02-22T05:44:22.134Z,9.00
2019-02-22T05:47:00.010Z,9.00
2019-02-22T05:49:22.134Z,8.90
2019-02-22T05:51:49.325Z,9.00
2019-02-22T05:54:17.497Z,9.00
2019-02-22T05:56:45.389Z,9.00
2019-02-22T05:59:13.369Z,9.00
2019-02-22T06:01:41.334Z,8.90
2019-02-22T06:04:12.698Z,9.00
2019-02-22T06:06:46.530Z,9.00
2019-02-22T06:09:20.317Z,9.00
2019-02-22T06:11:48.430Z,9.00
2019-02-22T06:14:16.302Z,9.00
2019-02-22T06:16:48.391Z,8.90
2019-02-22T06:19:16.468Z,8.90
2019-02-22T06:21:44.713Z,9.00
2019-02-22T06:24:12.678Z,9.00
2019-02-22T06:26:40.723Z,9.00
2019-02-22T06:29:08.887Z,9.00
2019-02-22T06:31:36.765Z,8.90
2019-02-22T06:34:04.749Z,9.00
2019-02-22T06:36:35.412Z,8.90
2019-02-22T06:39:06.715Z,8.90
2019-02-22T06:41:34.845Z,8.90
2019-02-22T06:44:08.876Z,8.80
2019-02-22T06:46:36.781Z,8.90
2019-02-22T06:49:10.701Z,8.90
2019-02-22T06:51:38.724Z,9.00
2019-02-22T06:54:06.660Z,8.90
2019-02-22T06:56:37.329Z,8.90
2019-02-22T06:59:05.648Z,8.90
2019-02-22T07:01:33.737Z,8.90
2019-02-22T07:04:01.661Z,9.00
2019-02-22T07:06:32.962Z,9.00
2019-02-22T07:09:01.175Z,9.00
2019-02-22T07:11:37.842Z,9.00
2019-02-22T07:14:06.231Z,9.10
2019-02-22T07:16:34.196Z,9.10
2019-02-22T07:19:02.222Z,9.20
2019-02-22T07:21:43.698Z,9.40
2019-02-22T07:24:02.654Z,9.40
2019-02-22T07:26:30.036Z,9.40
2019-02-22T07:29:00.713Z,9.40
2019-02-22T07:31:28.730Z,9.40
2019-02-22T07:33:58.733Z,9.50
2019-02-22T07:36:29.940Z,9.50
2019-02-22T07:38:58.230Z,9.50
2019-02-22T07:41:28.240Z,9.50
2019-02-22T07:43:56.576Z,9.60
2019-02-22T07:46:24.678Z,9.60
2019-02-22T07:49:00.194Z,9.60
2019-02-22T07:51:31.370Z,9.70
2019-02-22T07:53:59.354Z,9.90
2019-02-22T07:56:27.452Z,9.90
2019-02-22T07:58:58.497Z,10.20
2019-02-22T08:01:27.051Z,10.20
2019-02-22T08:03:55.750Z,10.00
2019-02-22T08:06:28.605Z,10.10
2019-02-22T08:08:56.897Z,10.10
2019-02-22T08:11:32.137Z,10.20
2019-02-22T08:14:08.024Z,10.30
2019-02-22T08:16:36.495Z,10.20
2019-02-22T08:19:04.756Z,10.10
2019-02-22T08:21:36.536Z,10.10
2019-02-22T08:24:04.694Z,10.10
2019-02-22T08:26:32.888Z,10.10
2019-02-22T08:29:01.025Z,10.20
2019-02-22T08:31:38.737Z,10.30
2019-02-22T08:34:06.879Z,10.30
2019-02-22T08:36:35.990Z,10.30
2019-02-22T08:39:05.017Z,10.50
2019-02-22T08:41:33.558Z,10.50
2019-02-22T08:44:03.527Z,10.90
2019-02-22T08:46:31.557Z,11.00
2019-02-22T08:49:01.039Z,11.00
2019-02-22T08:51:36.776Z,11.00
2019-02-22T08:54:05.137Z,10.80
2019-02-22T08:56:33.603Z,10.90
2019-02-22T08:59:01.804Z,10.90
2019-02-22T09:01:30.093Z,11.10
2019-02-22T09:03:58.014Z,11.00
2019-02-22T09:06:26.120Z,10.90
2019-02-22T09:08:54.045Z,10.90
2019-02-22T09:11:22.306Z,10.90
2019-02-22T09:14:02.206Z,11.20
2019-02-22T09:16:27.529Z,11.40
2019-02-22T09:18:55.860Z,11.50
2019-02-22T09:21:26.817Z,11.60
2019-02-22T09:26:50.740Z,11.30
2019-02-22T09:29:19.689Z,11.60
2019-02-22T09:31:47.579Z,11.70
2019-02-22T09:34:15.469Z,11.80
2019-02-22T09:36:43.441Z,12.00
2019-02-22T09:39:14.393Z,12.10
2019-02-22T09:41:42.333Z,12.10
2019-02-22T09:44:10.250Z,11.90
2019-02-22T09:46:41.015Z,11.90
2019-02-22T09:49:10.386Z,11.80
2019-02-22T09:51:41.067Z,12.00
2019-02-22T09:54:14.106Z,11.90
2019-02-22T09:56:42.070Z,11.70
2019-02-22T09:59:10.048Z,11.70
2019-02-22T10:01:40.805Z,11.80
2019-02-22T10:04:08.691Z,11.60
2019-02-22T10:06:36.682Z,11.90
2019-02-22T10:09:05.369Z,12.00
2019-02-22T10:11:33.360Z,11.90
2019-02-22T10:14:06.929Z,11.70
2019-02-22T10:16:34.049Z,11.70
2019-02-22T10:19:01.946Z,11.70
2019-02-22T10:21:29.917Z,11.70
2019-02-22T10:23:57.840Z,11.70
2019-02-22T10:26:25.827Z,11.70
2019-02-22T10:28:56.845Z,11.80
2019-02-22T10:31:24.753Z,12.00
2019-02-22T10:33:52.641Z,12.30
2019-02-22T10:36:24.576Z,12.50
2019-02-22T10:38:55.368Z,12.90
2019-02-22T10:41:26.792Z,12.70
2019-02-22T10:43:54.936Z,12.90
2019-02-22T10:46:22.891Z,12.90
2019-02-22T10:48:50.815Z,12.90
2019-02-22T10:51:18.923Z,13.20
2019-02-22T10:53:46.822Z,13.20
2019-02-22T10:56:16.424Z,12.80
2019-02-22T10:58:44.316Z,12.60
2019-02-22T11:01:13.446Z,12.70
2019-02-22T11:03:41.322Z,12.60
2019-02-22T11:06:12.049Z,12.60
2019-02-22T11:08:40.022Z,12.80
2019-02-22T11:11:08.152Z,12.90
2019-02-22T11:13:36.145Z,12.90
2019-02-22T11:16:04.222Z,13.20
2019-02-22T11:18:32.471Z,12.90
2019-02-22T11:21:00.404Z,12.80
2019-02-22T11:23:28.304Z,12.60
2019-02-22T11:25:56.273Z,12.70
2019-02-22T11:28:24.513Z,12.70
2019-02-22T11:30:52.474Z,12.60
2019-02-22T11:33:20.375Z,12.80
2019-02-22T11:35:49.937Z,12.80
2019-02-22T11:38:20.690Z,12.60
2019-02-22T11:40:48.673Z,12.60
2019-02-22T11:43:16.657Z,12.80
2019-02-22T11:45:49.880Z,12.80
2019-02-22T11:48:17.523Z,12.90
2019-02-22T11:50:49.659Z,12.70
2019-02-22T11:53:17.517Z,12.60
2019-02-22T11:55:45.505Z,12.40
2019-02-22T11:58:13.697Z,12.50
2019-02-22T12:00:41.661Z,12.50
2019-02-22T12:03:23.632Z,12.40
2019-02-22T12:05:39.253Z,12.50
2019-02-22T12:08:07.248Z,12.50
2019-02-22T12:10:35.543Z,12.20
2019-02-22T12:13:03.528Z,12.20
2019-02-22T12:15:31.745Z,12.30
2019-02-22T12:18:02.693Z,12.30
2019-02-22T12:20:30.700Z,12.40
2019-02-22T12:22:58.578Z,12.50
2019-02-22T12:25:26.580Z,12.60
2019-02-22T12:27:54.826Z,12.50
2019-02-22T12:30:25.501Z,12.30
2019-02-22T12:32:52.615Z,12.00
2019-02-22T12:35:20.623Z,12.20
2019-02-22T12:37:49.444Z,12.30
2019-02-22T12:40:17.342Z,12.00
2019-02-22T12:42:45.532Z,12.00
2019-02-22T12:45:13.592Z,11.60
2019-02-22T12:47:41.668Z,11.40
2019-02-22T12:50:09.716Z,11.50
2019-02-22T12:52:37.648Z,11.40
2019-02-22T12:55:09.148Z,11.30
2019-02-22T12:57:37.387Z,11.10
2019-02-22T13:00:09.500Z,11.00
2019-02-22T13:02:37.419Z,11.20
2019-02-22T13:05:05.693Z,11.20
2019-02-22T13:07:33.624Z,11.30
2019-02-22T13:10:01.518Z,11.40
2019-02-22T13:12:29.547Z,11.30
2019-02-22T13:14:57.594Z,11.40
2019-02-22T13:17:30.788Z,11.40
2019-02-22T13:19:55.329Z,11.40
2019-02-22T13:22:23.485Z,11.40
2019-02-22T13:24:55.564Z,11.40
2019-02-22T13:27:23.998Z,11.60
2019-02-22T13:29:52.082Z,11.80
2019-02-22T13:32:23.181Z,11.70
2019-02-22T13:34:57.192Z,11.60
2019-02-22T13:37:25.552Z,11.60
2019-02-22T13:39:53.506Z,11.80
2019-02-22T13:42:22.296Z,11.80
2019-02-22T13:44:50.282Z,11.80
2019-02-22T13:47:18.422Z,12.00
2019-02-22T13:49:47.033Z,11.90
2019-02-22T13:52:15.115Z,12.00
2019-02-22T13:54:44.494Z,11.80
2019-02-22T13:57:12.622Z,11.90
2019-02-22T13:59:40.568Z,11.60
2019-02-22T14:02:08.776Z,11.70
2019-02-22T14:04:36.950Z,11.90
2019-02-22T14:07:04.940Z,12.10
2019-02-22T14:09:32.945Z,12.10
2019-02-22T14:12:01.155Z,12.10
2019-02-22T14:14:32.536Z,12.20
2019-02-22T14:17:01.177Z,12.40
2019-02-22T14:19:29.123Z,12.40
2019-02-22T14:21:57.285Z,12.30
2019-02-22T14:24:25.450Z,12.40
2019-02-22T14:26:53.604Z,12.30
2019-02-22T14:29:22.950Z,12.30
2019-02-22T14:31:52.244Z,12.20
2019-02-22T14:34:20.312Z,12.10
2019-02-22T14:36:48.375Z,12.20
2019-02-22T14:39:20.410Z,12.10
2019-02-22T14:41:48.715Z,12.00
2019-02-22T14:44:21.238Z,12.00
2019-02-22T14:46:50.182Z,12.10
2019-02-22T14:49:18.186Z,11.90
2019-02-22T14:51:46.364Z,11.70
2019-02-22T14:54:14.373Z,11.70
2019-02-22T14:56:50.629Z,11.70
2019-02-22T14:59:22.281Z,11.80
2019-02-22T15:11:54.974Z,12.00
2019-02-22T15:14:55.414Z,11.80
2019-02-22T15:21:25.430Z,12.00
2019-02-22T15:24:19.066Z,12.10
2019-02-22T16:00:38.014Z,11.50
2019-02-22T16:03:06.991Z,11.30
2019-02-22T16:06:08.309Z,11.40
2019-02-22T16:27:16.336Z,10.70
2019-02-22T16:40:17.780Z,10.40
2019-02-22T16:42:45.992Z,10.30
2019-02-22T16:51:36.897Z,10.00
2019-02-22T16:54:07.704Z,9.90
2019-02-22T16:56:35.728Z,9.90
2019-02-22T16:59:06.832Z,9.80
2019-02-22T17:01:37.225Z,9.80
2019-02-22T17:04:07.957Z,9.60
2019-02-22T17:06:38.835Z,9.50
2019-02-22T17:09:07.255Z,9.50
2019-02-22T17:11:35.239Z,9.40
2019-02-22T17:14:03.206Z,9.40
2019-02-22T17:16:32.223Z,9.30
2019-02-22T17:19:00.324Z,9.10
2019-02-22T17:21:28.528Z,8.90
2019-02-22T17:23:59.260Z,8.90
2019-02-22T17:26:27.457Z,8.70
2019-02-22T17:28:55.369Z,8.60
2019-02-22T17:31:23.307Z,8.50
2019-02-22T17:33:51.193Z,8.40
2019-02-22T17:36:26.685Z,8.30
2019-02-22T17:38:51.875Z,8.40
2019-02-22T17:41:19.841Z,8.40
2019-02-22T17:43:47.790Z,8.40
2019-02-22T17:46:15.920Z,8.20
2019-02-22T17:48:43.800Z,8.10
2019-02-22T17:51:12.026Z,8.00
2019-02-22T17:53:42.384Z,7.90
2019-02-22T17:56:10.446Z,7.70
2019-02-22T17:58:38.320Z,7.70
2019-02-22T18:01:06.317Z,7.70
2019-02-22T18:03:37.252Z,7.60
2019-02-22T18:06:05.152Z,7.60
2019-02-22T18:08:35.675Z,7.60
2019-02-22T18:11:03.943Z,7.60
2019-02-22T18:13:32.458Z,7.60
2019-02-22T18:16:02.807Z,7.60
2019-02-22T18:18:33.060Z,7.50
2019-02-22T18:21:04.274Z,7.20
2019-02-22T18:23:35.036Z,7.30
2019-02-22T18:26:06.939Z,7.20
2019-02-22T18:28:38.039Z,7.00
2019-02-22T18:31:09.057Z,6.80
2019-02-22T18:33:41.212Z,6.60
2019-02-22T18:36:11.685Z,6.60
2019-02-22T18:38:43.633Z,6.70
2019-02-22T18:41:15.003Z,6.70
2019-02-22T18:43:58.689Z,6.70
2019-02-22T18:46:29.448Z,6.80
2019-02-22T18:49:00.361Z,6.70
2019-02-22T18:51:31.866Z,6.70
2019-02-22T18:54:04.184Z,6.60
2019-02-22T18:56:34.685Z,6.60
2019-02-22T18:59:05.495Z,6.40
2019-02-22T19:01:35.887Z,6.20
2019-02-22T19:04:07.066Z,6.00
2019-02-22T19:06:39.520Z,5.90
2019-02-22T19:09:11.964Z,5.80
2019-02-22T19:11:40.606Z,5.80
2019-02-22T19:14:10.015Z,5.80
2019-02-22T19:16:40.788Z,5.70
2019-02-22T19:19:10.881Z,5.70
2019-02-22T19:21:41.504Z,5.70
2019-02-22T19:24:12.508Z,5.70
2019-02-22T19:26:43.122Z,5.70
2019-02-22T19:29:13.612Z,5.60
2019-02-22T19:31:44.136Z,5.50
2019-02-22T19:34:14.394Z,5.50
2019-02-22T19:36:44.982Z,5.40
2019-02-22T19:39:15.172Z,5.50
2019-02-22T19:41:47.107Z,5.40
2019-02-22T19:44:18.324Z,5.30
2019-02-22T19:46:48.335Z,5.30
2019-02-22T19:49:19.280Z,5.10
2019-02-22T19:51:49.351Z,5.00
2019-02-22T19:54:20.548Z,5.00
2019-02-22T19:56:51.525Z,4.90
2019-02-22T19:59:22.701Z,4.90
2019-02-22T20:01:54.328Z,4.70
2019-02-22T20:04:25.614Z,4.50
2019-02-22T20:06:56.425Z,4.50
2019-02-22T20:09:27.496Z,4.50
2019-02-22T20:11:58.054Z,4.50
2019-02-22T20:14:29.422Z,4.60
2019-02-22T20:17:00.539Z,4.60
2019-02-22T20:19:30.526Z,4.60
2019-02-22T20:22:00.958Z,4.50
2019-02-22T20:24:31.895Z,4.50
2019-02-22T20:27:02.009Z,4.70
2019-02-22T20:29:30.078Z,4.70
2019-02-22T20:31:58.003Z,4.70
2019-02-22T20:34:26.003Z,4.80
2019-02-22T20:36:53.938Z,4.80
2019-02-22T20:39:25.817Z,4.80
2019-02-22T20:41:55.781Z,4.70
2019-02-22T20:44:24.077Z,4.70
2019-02-22T20:46:52.327Z,4.70
2019-02-22T20:49:20.493Z,4.60
2019-02-22T20:51:48.472Z,4.60
2019-02-22T20:54:19.494Z,4.60
2019-02-22T20:56:50.532Z,4.80
2019-02-22T20:59:18.464Z,4.90
2019-02-22T21:01:52.573Z,5.10
2019-02-22T21:04:20.672Z,5.20
2019-02-22T21:06:48.660Z,5.40
2019-02-22T21:09:16.945Z,5.40
2019-02-22T21:11:45.177Z,5.50
2019-02-22T21:14:13.089Z,5.40
2019-02-22T21:16:41.022Z,5.30
2019-02-22T21:19:09.173Z,5.30
2019-02-22T21:21:40.003Z,5.40
2019-02-22T21:24:08.251Z,5.30
2019-02-22T21:26:36.490Z,5.40
2019-02-22T21:29:04.459Z,5.40
2019-02-22T21:31:32.441Z,5.40
2019-02-22T21:34:00.608Z,5.50
2019-02-22T21:36:28.655Z,5.50
2019-02-22T21:38:56.641Z,5.60
2019-02-22T21:41:24.627Z,5.70
2019-02-22T21:43:54.075Z,5.70
2019-02-22T21:46:22.069Z,5.80
2019-02-22T21:48:49.977Z,5.90
2019-02-22T21:51:20.730Z,6.00
2019-02-22T21:53:48.685Z,5.90
2019-02-22T21:56:16.656Z,6.00
2019-02-22T21:58:44.599Z,6.00
2019-02-22T22:01:12.811Z,6.00
2019-02-22T22:03:43.830Z,6.00
2019-02-22T22:06:11.743Z,6.00
2019-02-22T22:08:39.920Z,6.00
2019-02-22T22:11:09.518Z,6.00
2019-02-22T22:13:37.458Z,5.90
2019-02-22T22:16:05.447Z,5.90
2019-02-22T22:18:38.717Z,5.90
2019-02-22T22:21:03.209Z,5.90
2019-02-22T22:23:31.366Z,5.80
2019-02-22T22:26:05.260Z,5.80
2019-02-22T22:28:33.176Z,5.70
2019-02-22T22:31:01.405Z,5.70
2019-02-22T22:33:32.163Z,5.50
2019-02-22T22:36:00.052Z,5.50
2019-02-22T22:38:27.965Z,5.50
2019-02-22T22:40:55.889Z,5.50
2019-02-22T22:43:23.866Z,5.50
2019-02-22T22:45:51.791Z,5.50
2019-02-22T22:48:19.711Z,5.50
2019-02-22T22:50:49.935Z,5.50
2019-02-22T22:53:17.843Z,5.40
2019-02-22T22:55:45.729Z,5.30
2019-02-22T22:58:15.165Z,5.30
2019-02-22T23:01:02.346Z,5.30
2019-02-22T23:03:30.526Z,5.20
2019-02-22T23:05:58.816Z,5.20
2019-02-22T23:08:26.789Z,5.20
2019-02-22T23:10:54.688Z,5.20
2019-02-22T23:13:22.696Z,5.20
2019-02-22T23:15:50.664Z,5.10
2019-02-22T23:18:21.401Z,5.20
2019-02-22T23:20:49.356Z,5.20
2019-02-22T23:23:17.349Z,5.10
2019-02-22T23:25:45.324Z,5.10
2019-02-22T23:28:16.392Z,5.00
2019-02-22T23:30:47.532Z,5.00
2019-02-22T23:33:15.429Z,5.00
2019-02-22T23:35:43.532Z,4.90
2019-02-22T23:38:11.758Z,5.00
2019-02-22T23:40:42.471Z,5.00
2019-02-22T23:43:10.660Z,5.10
2019-02-22T23:45:38.644Z,5.10
2019-02-22T23:48:07.645Z,5.10
2019-02-22T23:50:35.921Z,5.10
2019-02-22T23:53:06.625Z,5.20
2019-02-22T23:55:35.902Z,5.10
2019-02-22T23:58:03.843Z,5.20
